Map

Track Data

SID SEASON NUMBER BASIN SUBBASIN NAME ISO_TIME NATURE LAT LON WMO_WIND WMO_PRES WMO_AGENCY TRACK_TYPE DIST2LAND LANDFALL IFLAG USA_AGENCY USA_ATCF_ID USA_LAT USA_LON USA_RECORD USA_STATUS USA_WIND USA_PRES USA_SSHS USA_R34_NE USA_R34_SE USA_R34_SW USA_R34_NW USA_R50_NE USA_R50_SE USA_R50_SW USA_R50_NW USA_R64_NE USA_R64_SE USA_R64_SW USA_R64_NW USA_POCI USA_ROCI USA_RMW USA_EYE TOKYO_LAT TOKYO_LON TOKYO_GRADE TOKYO_WIND TOKYO_PRES TOKYO_R50_DIR TOKYO_R50_LONG TOKYO_R50_SHORT TOKYO_R30_DIR TOKYO_R30_LONG TOKYO_R30_SHORT TOKYO_LAND CMA_LAT CMA_LON CMA_CAT CMA_WIND CMA_PRES HKO_LAT HKO_LON HKO_CAT HKO_WIND HKO_PRES NEWDELHI_LAT NEWDELHI_LON NEWDELHI_GRADE NEWDELHI_WIND NEWDELHI_PRES NEWDELHI_CI NEWDELHI_DP NEWDELHI_POCI REUNION_LAT REUNION_LON REUNION_TYPE REUNION_WIND REUNION_PRES REUNION_TNUM REUNION_CI REUNION_RMW REUNION_R34_NE REUNION_R34_SE REUNION_R34_SW REUNION_R34_NW REUNION_R50_NE REUNION_R50_SE REUNION_R50_SW REUNION_R50_NW REUNION_R64_NE REUNION_R64_SE REUNION_R64_SW REUNION_R64_NW BOM_LAT BOM_LON BOM_TYPE BOM_WIND BOM_PRES BOM_TNUM BOM_CI BOM_RMW BOM_R34_NE BOM_R34_SE BOM_R34_SW BOM_R34_NW BOM_R50_NE BOM_R50_SE BOM_R50_SW BOM_R50_NW BOM_R64_NE BOM_R64_SE BOM_R64_SW BOM_R64_NW BOM_ROCI BOM_POCI BOM_EYE BOM_POS_METHOD BOM_PRES_METHOD NADI_LAT NADI_LON NADI_CAT NADI_WIND NADI_PRES WELLINGTON_LAT WELLINGTON_LON WELLINGTON_WIND WELLINGTON_PRES DS824_LAT DS824_LON DS824_STAGE DS824_WIND DS824_PRES TD9636_LAT TD9636_LON TD9636_STAGE TD9636_WIND TD9636_PRES TD9635_LAT TD9635_LON TD9635_WIND TD9635_PRES TD9635_ROCI NEUMANN_LAT NEUMANN_LON NEUMANN_CLASS NEUMANN_WIND NEUMANN_PRES MLC_LAT MLC_LON MLC_CLASS MLC_WIND MLC_PRES USA_GUST BOM_GUST BOM_GUST_PER REUNION_GUST REUNION_GUST_PER USA_SEAHGT USA_SEARAD_NE USA_SEARAD_SE USA_SEARAD_SW USA_SEARAD_NW STORM_SPEED STORM_DIR
1988012S11061 1988 5 SI MM CALIDERA 1988-01-11 12:00:00 TS -10.8000 60.5000 24 1000 reunion main 1083 1061 _____O________ -1 -10.8000 60.5000 2 24 1000 2.00000 2.00000 10 255
1988012S11061 1988 5 SI MM CALIDERA 1988-01-11 15:00:00 TS -10.9252 60.0302 main 1058 1054 _____P________ -1 -10.9252 60.0302 2 24 1000 12 274
1988012S11061 1988 5 SI MM CALIDERA 1988-01-11 18:00:00 TS -10.7200 59.2800 24 1000 reunion main 1055 996 O____O______O_ jtwc_sh SH081988 -10.3000 58.8000 20 -1 -11.0000 59.6000 2 24 1000 2.00000 2.00000 -10.3000 58.8000 TC 20 12 272
1988012S11061 1988 5 SI MM CALIDERA 1988-01-11 21:00:00 TS -10.8750 58.8213 main 996 948 P____P______P_ SH081988 -10.7501 58.4077 20 -1 -10.9999 59.2349 2 24 1000 -10.7501 58.4077 TC 20 10 246
1988012S11061 1988 5 SI MM CALIDERA 1988-01-12 00:00:00 TS -11.1273 58.3273 24 1000 reunion main 938 884 O____O____O_O_ jtwc_sh SH081988 -11.2000 58.0000 20 -1 -11.0000 58.9000 2 24 1000 2.00000 2.00000 -11.2000 58.0000 1 20 -11.2000 58.0000 TC 20 11 239
1988012S11061 1988 5 SI MM CALIDERA 1988-01-12 03:00:00 TS -11.4696 57.8320 main 873 825 P____P____P_P_ SH081988 -11.6374 57.5650 22 -1 -11.0925 58.5351 2 24 1000 -11.5524 57.4935 1 21 -11.6374 57.5650 TC 22 11 236
1988012S11061 1988 5 SI MM CALIDERA 1988-01-12 06:00:00 TS -11.7634 57.3731 24 1000 reunion main 823 764 O____O____P_O_ jtwc_sh SH081988 -12.0000 57.1000 25 -1 -11.2000 58.2000 2 24 1000 2.00000 2.00000 -11.8834 56.9990 1 22 -12.0000 57.1000 TC 25 10 241
1988012S11061 1988 5 SI MM CALIDERA 1988-01-12 09:00:00 TS -11.9725 56.9218 main 764 719 P____P____P_P_ SH081988 -12.2450 56.5924 25 -1 -11.2273 57.9723 2 26 998 -12.1727 56.5299 1 23 -12.2450 56.5924 TC 25 9 247
1988012S11061 1988 5 SI MM CALIDERA 1988-01-12 12:00:00 TS -12.1250 56.5000 28 997 reunion main 719 671 O____O____O_O_ jtwc_sh SH081988 -12.4000 56.1000 25 -1 -11.3000 57.7000 2 28 997 2.50000 2.50000 -12.4000 56.1000 1 25 -12.4000 56.1000 TC 25 9 250
1988012S11061 1988 5 SI MM CALIDERA 1988-01-12 15:00:00 TS -12.2795 56.0704 main 671 626 P____P____P_P_ SH081988 -12.5150 55.6624 25 -1 -11.5351 57.2377 2 28 997 -12.5531 55.7191 1 26 -12.5150 55.6624 TC 25 9 250
1988012S11061 1988 5 SI MM CALIDERA 1988-01-12 18:00:00 TS -12.4130 55.6704 28 997 reunion main 626 581 O____O____P_O_ jtwc_sh SH081988 -12.6000 55.3000 25 -1 -11.8000 56.7000 2 28 997 2.50000 2.50000 -12.6521 55.3818 1 27 -12.6000 55.3000 TC 25 8 252
1988012S11061 1988 5 SI MM CALIDERA 1988-01-12 21:00:00 TS -12.5187 55.3296 main 581 547 P____P____P_P_ SH081988 -12.6999 55.0200 27 -1 -11.9499 56.1998 2 28 997 -12.7251 55.0786 1 28 -12.6999 55.0200 TC 27 7 251
1988012S11061 1988 5 SI MM CALIDERA 1988-01-13 00:00:00 TS -12.6250 55.0250 28 997 reunion main 547 523 O____O____O_O_ jtwc_sh SH081988 -12.8000 54.8000 30 -1 -12.1000 55.7000 2 28 997 2.50000 2.50000 -12.8000 54.8000 1 30 -12.8000 54.8000 TC 30 6 248
1988012S11061 1988 5 SI MM CALIDERA 1988-01-13 03:00:00 TS -12.7551 54.7389 main 510 486 P____P____P_P_ SH081988 -12.8924 54.6074 32 -1 -12.3424 55.1926 2 28 997 -12.8931 54.5484 1 31 -12.8924 54.6074 TC 32 6 244
1988012S11061 1988 5 SI MM CALIDERA 1988-01-13 06:00:00 TS -12.8993 54.4536 28 997 reunion main 486 452 O____O____P_O_ jtwc_sh SH081988 -13.0000 54.4000 35 0 -12.6000 54.7000 2 28 997 2.50000 2.50000 -12.9970 54.3144 1 32 -13.0000 54.4000 TC 35 7 243
1988012S11061 1988 5 SI MM CALIDERA 1988-01-13 09:00:00 TS -13.0493 54.1364 main 442 405 P____P____P_P_ SH081988 -13.1275 54.1150 35 0 -12.8149 54.2424 2 32 994 -13.1274 54.0732 1 33 -13.1275 54.1150 TC 40 7 243
1988012S11061 1988 5 SI MM CALIDERA 1988-01-13 12:00:00 TS -13.2250 53.8000 36 991 reunion main 405 370 O____O____O_O_ jtwc_sh SH081988 -13.3000 53.8000 35 0 -13.0000 53.8000 3 36 991 3.00000 3.00000 -13.3000 53.8000 2 35 -13.3000 53.8000 TC 45 8 240
1988012S11061 1988 5 SI MM CALIDERA 1988-01-13 15:00:00 TS -13.4275 53.4629 main 370 324 P____P____P_P_ SH081988 -13.5274 53.5224 37 0 -13.1274 53.3497 3 40 987 -13.5279 53.4570 2 37 -13.5274 53.5224 TC 50 8 237
1988012S11061 1988 5 SI MM CALIDERA 1988-01-13 18:00:00 TS -13.6744 53.0950 44 984 reunion main 324 272 O____O____P_O_ jtwc_sh SH081988 -13.8000 53.2000 40 0 -13.3000 52.9000 3 44 984 3.50000 3.50000 -13.7977 53.0802 2 40 -13.8000 53.2000 TC 55 10 235
1988012S11061 1988 5 SI MM CALIDERA 1988-01-13 21:00:00 TS -13.9784 52.6596 main 272 208 P____P____P_P_ SH081988 -14.1001 52.7576 42 0 -13.6200 52.4351 3 48 980 -14.0935 52.6882 2 42 -14.1001 52.7576 TC 60 11 233
1988012S11061 1988 5 SI MM CALIDERA 1988-01-14 00:00:00 TS -14.3000 52.2250 52 976 reunion main 208 164 O____O____O_O_ jtwc_sh SH081988 -14.4000 52.3000 45 0 -14.0000 52.0000 3 52 976 4.00000 4.00000 -14.4000 52.3000 2 45 -14.4000 52.3000 TC 65 10 232
1988012S11061 1988 5 SI MM CALIDERA 1988-01-14 03:00:00 TS -14.5888 51.8510 main 164 112 P____P____P_P_ SH081988 -14.6424 51.9348 50 0 -14.3574 51.6199 3 57 971 -14.7132 51.9146 2 47 -14.6424 51.9348 TC 62 9 230
1988012S11061 1988 5 SI MM CALIDERA 1988-01-14 06:00:00 TS -14.8825 51.5101 62 966 reunion main 112 75 O____O____P_O_ jtwc_sh SH081988 -14.9000 51.6000 55 0 -14.7000 51.3000 3 62 966 4.50000 4.50000 -15.0301 51.5404 2 50 -14.9000 51.6000 TC 60 9 226
1988012S11061 1988 5 SI MM CALIDERA 1988-01-14 09:00:00 TS -15.2211 51.1641 main 75 44 P____P____P_P_ SH081988 -15.2650 51.2277 55 0 -15.0225 51.0050 3 62 966 -15.3320 51.1959 2 52 -15.2650 51.2277 TC 60 9 224
1988012S11061 1988 5 SI MM CALIDERA 1988-01-14 12:00:00 TS -15.5250 50.8750 62 966 reunion main 44 34 O____O____O_O_ jtwc_sh SH081988 -15.6000 50.9000 55 0 -15.3000 50.8000 3 62 966 4.50000 4.50000 -15.6000 50.9000 2 55 -15.6000 50.9000 TC 60 7 223
1988012S11061 1988 5 SI MM CALIDERA 1988-01-14 15:00:00 TS -15.7184 50.6910 main 34 30 P____P____P_P_ SH081988 -15.7724 50.6698 57 0 -15.5224 50.7423 3 57 971 -15.8065 50.6822 2 57 -15.7724 50.6698 TC 62 5 222
1988012S11061 1988 5 SI MM CALIDERA 1988-01-14 18:00:00 TS -15.8699 50.5529 52 976 reunion main 33 21 O____O____P_O_ jtwc_sh SH081988 -15.9000 50.5000 60 0 -15.7000 50.7000 3 52 976 4.00000 4.00000 -15.9795 50.5117 2 60 -15.9000 50.5000 TC 65 4 221
1988012S11061 1988 5 SI MM CALIDERA 1988-01-14 21:00:00 TS -16.0469 50.3976 main 21 15 P____P____P_P_ SH081988 -16.0924 50.3574 62 0 -15.8650 50.5150 3 52 976 -16.1378 50.3604 2 62 -16.0924 50.3574 TC 67 5 222
1988012S11061 1988 5 SI MM CALIDERA 1988-01-15 00:00:00 TS -16.2250 50.2250 52 976 reunion main 22 21 O____O____O_O_ jtwc_sh SH081988 -16.3000 50.2000 65 1 -16.0000 50.3000 3 52 976 4.00000 4.00000 -16.3000 50.2000 3 65 -16.3000 50.2000 TC 70 5 226
1988012S11061 1988 5 SI MM CALIDERA 1988-01-15 03:00:00 TS -16.3934 50.0230 main 21 0 P____P____P_P_ SH081988 -16.5000 49.9575 57 0 -16.0849 50.1798 3 57 971 -16.4887 49.9974 3 58 -16.5000 49.9575 TC 70 5 230
1988012S11061 1988 5 SI MM CALIDERA 1988-01-15 06:00:00 TS -16.5712 49.7949 62 966 reunion main 0 0 O____O____P_O_ jtwc_sh SH081988 -16.7000 49.7000 50 0 -16.2000 50.0000 3 62 966 4.50000 4.50000 -16.6849 49.7798 3 52 -16.7000 49.7000 TC 70 6 231
1988012S11061 1988 5 SI MM CALIDERA 1988-01-15 09:00:00 TS -16.7697 49.5312 main 0 0 P____P____P_P_ SH081988 -16.8999 49.4999 45 0 -16.3903 49.5778 3 62 966 -16.8887 49.5473 3 46 -16.8999 49.4999 TC 65 7 229
1988012S11061 1988 5 SI MM CALIDERA 1988-01-15 12:00:00 TS -17.0000 49.2750 62 966 reunion main 0 0 O____O____O_O_ jtwc_sh SH081988 -17.1000 49.3000 40 0 -16.7000 49.2000 3 62 966 4.50000 4.50000 -17.1000 49.3000 2 40 -17.1000 49.3000 TC 60 7 220
1988012S11061 1988 5 SI MM CALIDERA 1988-01-15 15:00:00 TS -17.2693 49.0943 main 0 0 P____P____P_P_ SH081988 -17.2925 49.0649 35 0 -17.1623 49.1917 3 57 971 -17.3298 49.0556 2 36 -17.2925 49.0649 TC 47 7 212
1988012S11061 1988 5 SI MM CALIDERA 1988-01-15 18:00:00 TS -17.5662 48.8987 52 976 reunion main 0 0 O____O____P_O_ jtwc_sh SH081988 -17.5000 48.8000 30 -1 -17.7000 49.2000 3 52 976 4.00000 4.00000 -17.5647 48.7949 2 32 -17.5000 48.8000 TC 35 8 216
1988012S11061 1988 5 SI MM CALIDERA 1988-01-15 21:00:00 TS -17.8898 48.6280 main 0 0 P____P____P_P_ SH081988 -17.7575 48.5150 27 -1 -18.2521 48.9703 3 48 980 -17.7922 48.5118 2 28 -17.7575 48.5150 TC 30 9 224
1988012S11061 1988 5 SI MM CALIDERA 1988-01-16 00:00:00 TS -18.1750 48.2750 44 984 reunion main 0 0 O____O____O_O_ jtwc_sh SH081988 -18.0000 48.2000 25 -1 -18.7000 48.5000 3 44 984 3.50000 3.50000 -18.0000 48.2000 1 25 -18.0000 48.2000 TC 25 9 239
1988012S11061 1988 5 SI MM CALIDERA 1988-01-16 03:00:00 TS -18.3445 47.8319 main 0 0 P____P____P_P_ SH081988 -18.1649 47.8649 25 -1 -18.8806 47.7444 3 40 987 -18.1675 47.8534 1 25 -18.1649 47.8649 TC 25 9 251
1988012S11061 1988 5 SI MM CALIDERA 1988-01-16 06:00:00 TS -18.4788 47.3449 36 991 reunion main 0 0 O____O____P_O_ jtwc_sh SH081988 -18.3000 47.5000 25 -1 -19.0000 46.9000 3 36 991 3.00000 3.00000 -18.3150 47.4796 1 25 -18.3000 47.5000 TC 25 10 251
1988012S11061 1988 5 SI MM CALIDERA 1988-01-16 09:00:00 TS -18.6637 46.8703 main 0 0 P____P____P_P_ SH081988 -18.4500 47.1074 25 -1 -19.3000 46.1754 3 36 991 -18.4550 47.0909 1 25 -18.4500 47.1074 TC 25 9 247
1988012S11061 1988 5 SI MM CALIDERA 1988-01-16 12:00:00 TS -18.8500 46.4250 36 991 reunion main 0 0 O____O____O_O_ jtwc_sh SH081988 -18.6000 46.7000 25 -1 -19.6000 45.6000 3 36 991 3.00000 3.00000 -18.6000 46.7000 1 25 -18.6000 46.7000 TC 25 9 247
1988012S11061 1988 5 SI MM CALIDERA 1988-01-16 15:00:00 TS -18.9971 46.0332 main 0 0 P____P____P_P_ SH081988 -18.7425 46.2924 25 -1 -19.7721 45.2396 3 32 994 -18.7312 46.3082 1 25 -18.7425 46.2924 TC 25 8 247
1988012S11061 1988 5 SI MM CALIDERA 1988-01-16 18:00:00 TS -19.1438 45.6798 28 997 reunion main 0 0 O____O____P_O_ jtwc_sh SH081988 -18.9000 45.9000 25 -1 -19.9000 45.0000 2 28 997 2.50000 2.50000 -18.8750 45.9192 1 25 -18.9000 45.9000 TC 25 7 245
1988012S11061 1988 5 SI MM CALIDERA 1988-01-16 21:00:00 TS -19.3059 45.3282 main 0 0 P____P____P_P_ SH081988 -19.0699 45.5423 25 -1 -20.0275 44.6826 2 26 998 -19.0563 45.5456 1 25 -19.0699 45.5423 TC 25 7 238
1988012S11061 1988 5 SI MM CALIDERA 1988-01-17 00:00:00 TS -19.5250 45.0250 24 1000 reunion main 0 0 O____O____O_O_ jtwc_sh SH081988 -19.3000 45.2000 25 -1 -20.2000 44.5000 2 24 1000 2.00000 2.00000 -19.3000 45.2000 1 25 -19.3000 45.2000 TC 25 7 223
1988012S11061 1988 5 SI MM CALIDERA 1988-01-17 03:00:00 TS -19.8453 44.8006 main 0 0 P____P____P_P_ SH081988 -19.6125 44.8276 25 -1 -20.4924 44.6868 2 24 1001 -19.6637 44.8605 1 25 -19.6125 44.8276 TC 25 8 211
1988012S11061 1988 5 SI MM CALIDERA 1988-01-17 06:00:00 TS -20.2212 44.5884 24 1003 reunion main 0 0 O____O____P_O_ jtwc_sh SH081988 -20.0000 44.5000 25 -1 -20.8000 44.8000 2 24 1003 2.00000 2.00000 -20.0850 44.5537 1 25 -20.0000 44.5000 TC 25 9 212
1988012S11061 1988 5 SI MM CALIDERA 1988-01-17 09:00:00 TS -20.6149 44.2783 main 0 0 P____P____P_P_ SH081988 -20.4574 44.2476 25 -1 -21.0308 44.3231 2 22 1003 -20.5138 44.2949 1 25 -20.4574 44.2476 TC 25 9 215
1988012S11061 1988 5 SI MM CALIDERA 1988-01-17 12:00:00 TS -20.9750 44.0250 20 1003 reunion main 0 0 O____O____O_O_ jtwc_sh SH081988 -20.9000 44.1000 25 -1 -21.2000 43.8000 6 20 1003 1.50000 1.50000 -20.9000 44.1000 1 25 -20.9000 44.1000 TC 25 7 204
1988012S11061 1988 5 SI MM CALIDERA 1988-01-17 15:00:00 TS -21.2410 43.9747 main 0 0 P____P____P_P_ SH081988 -21.2449 44.0847 25 -1 -21.3073 43.7248 6 20 1003 -21.1668 44.0045 1 25 -21.2449 44.0847 TC 25 5 184
1988012S11061 1988 5 SI MM CALIDERA 1988-01-17 18:00:00 TS -21.4468 43.9921 20 1003 reunion main 0 0 O____O____P_O_ jtwc_sh SH081988 -21.5000 44.1000 25 -1 -21.4000 43.8000 2 20 1003 1.50000 1.50000 -21.3870 43.9685 1 25 -21.5000 44.1000 TC 25 4 181
1988012S11061 1988 5 SI MM CALIDERA 1988-01-17 21:00:00 TS -21.6078 43.9483 main 0 0 P____P____P_P_ SH081988 -21.6500 44.0224 25 -1 -21.5425 43.8000 2 20 1003 -21.5888 43.9484 1 25 -21.6500 44.0224 TC 25 3 199
1988012S11061 1988 5 SI MM CALIDERA 1988-01-18 00:00:00 TS -21.7750 43.8750 20 1003 reunion main 0 0 O____O____O_O_ jtwc_sh SH081988 -21.8000 43.9000 25 -1 -21.7000 43.8000 2 20 1003 1.50000 1.50000 -21.8000 43.9000 1 25 -21.8000 43.9000 TC 25 4 203
1988012S11061 1988 5 SI MM CALIDERA 1988-01-18 03:00:00 TS -22.0121 43.7558 main 0 0 P____P____P_P_ SH081988 -22.0850 43.7650 25 -1 -21.8500 43.8000 2 20 1003 -22.0284 43.6932 1 25 -22.0850 43.7650 TC 25 6 206
1988012S11061 1988 5 SI MM CALIDERA 1988-01-18 06:00:00 TS -22.2688 43.6155 20 1003 reunion main 0 0 O____O____P_O_ jtwc_sh SH081988 -22.4000 43.6000 25 -1 -22.0000 43.8000 2 20 1003 1.50000 1.50000 -22.2753 43.4621 1 25 -22.4000 43.6000 TC 25 6 208
1988012S11061 1988 5 SI MM CALIDERA 1988-01-18 09:00:00 TS -22.5024 43.4743 main 0 0 P____P____P_P_ SH081988 -22.6650 43.4075 25 -1 -22.1200 43.8075 2 22 1001 -22.5595 43.2749 1 25 -22.6650 43.4075 TC 25 5 206
1988012S11061 1988 5 SI MM CALIDERA 1988-01-18 12:00:00 TS -22.7286 43.3714 24 1000 reunion main 0 0 O____O____O_O_ jtwc_sh SH081988 -22.9000 43.2000 25 -1 -22.3000 43.8000 2 24 1000 2.00000 2.00000 -22.9000 43.2000 1 25 -22.9000 43.2000 TC 25 5 193
1988012S11061 1988 5 SI MM CALIDERA 1988-01-18 15:00:00 TS -23.0109 43.3451 main 23 20 P____P____P_P_ SH081988 -23.1075 42.9976 25 -1 -22.6200 43.7427 2 26 998 -23.3051 43.2952 1 25 -23.1075 42.9976 TC 25 7 176
1988012S11061 1988 5 SI MM CALIDERA 1988-01-18 18:00:00 TS -23.4076 43.4167 28 997 reunion main 23 0 O____O____P_O_ jtwc_sh SH081988 -23.3000 42.8000 25 -1 -23.0000 43.7000 2 28 997 2.50000 2.50000 -23.7671 43.5127 1 25 -23.3000 42.8000 TC 25 10 157
1988012S11061 1988 5 SI MM CALIDERA 1988-01-18 21:00:00 TS -23.9688 43.7942 main 0 0 _____P____P___ SH081988 -1 -23.3600 43.7273 2 26 998 -24.2706 43.8239 1 25 TC 13 151
1988012S11061 1988 5 SI MM CALIDERA 1988-01-19 00:00:00 ET -24.5800 44.1200 24 1000 reunion main 0 0 _____O____O___ -1 -23.7000 43.8000 5 24 1000 2.00000 2.00000 -24.8000 44.2000 1 25 16 153
1988012S11061 1988 5 SI MM CALIDERA 1988-01-19 03:00:00 NR -25.3604 44.5597 main 11 11 __________P___ -1 5 -25.3604 44.5597 1 25 16 150
1988012S11061 1988 5 SI MM CALIDERA 1988-01-19 06:00:00 NR -25.9366 44.9797 24 1000 reunion main 39 39 __________P___ -1 -25.9366 44.9797 1 25 14 144
1988012S11061 1988 5 SI MM CALIDERA 1988-01-19 09:00:00 NR -26.4945 45.4599 main 100 100 __________P___ -1 -26.4945 45.4599 1 25 14 139
1988012S11061 1988 5 SI MM CALIDERA 1988-01-19 12:00:00 NR -27.0000 46.0000 24 1000 reunion main 164 164 __________O___ -1 -27.0000 46.0000 1 25 13 134
1988012S11061 1988 5 SI MM CALIDERA 1988-01-19 15:00:00 NR -27.4130 46.5224 main 224 224 __________P___ -1 -27.4130 46.5224 1 25 13 128
1988012S11061 1988 5 SI MM CALIDERA 1988-01-19 18:00:00 NR -27.7705 47.1094 24 1000 reunion main 291 291 __________P___ -1 -27.7705 47.1094 1 25 13 121
1988012S11061 1988 5 SI MM CALIDERA 1988-01-19 21:00:00 NR -28.0930 47.7916 main 338 338 __________P___ -1 -28.0930 47.7916 1 25 15 116
1988012S11061 1988 5 SI MM CALIDERA 1988-01-20 00:00:00 NR -28.4000 48.6000 20 1003 reunion main 399 399 __________O___ -1 -28.4000 48.6000 1 25 17 113
1988012S11061 1988 5 SI MM CALIDERA 1988-01-20 03:00:00 NR -28.7494 49.5848 main 477 477 __________P___ -1 -28.7494 49.5848 1 23 20 110
1988012S11061 1988 5 SI MM CALIDERA 1988-01-20 06:00:00 NR -29.0785 50.6920 36 reunion main 577 577 __________P___ -1 -29.0785 50.6920 1 22 21 107
1988012S11061 1988 5 SI MM CALIDERA 1988-01-20 09:00:00 NR -29.3678 51.8536 main 681 681 __________P___ -1 -29.3678 51.8536 1 21 21 105
1988012S11061 1988 5 SI MM CALIDERA 1988-01-20 12:00:00 NR -29.6000 53.0000 36 reunion main 776 776 __________O___ -1 -29.6000 53.0000 1 20 20 102
1988012S11061 1988 5 SI MM CALIDERA 1988-01-20 15:00:00 NR -29.7655 54.0758 main 873 873 __________P___ -1 -29.7655 54.0758 1 20 18 99
1988012S11061 1988 5 SI MM CALIDERA 1988-01-20 18:00:00 NR -29.8763 55.0867 36 reunion main 950 949 __________P___ -1 -29.8763 55.0867 1 20 17 96
1988012S11061 1988 5 SI MM CALIDERA 1988-01-20 21:00:00 NR -29.9492 56.0542 main 950 950 __________P___ -1 -29.9492 56.0542 1 20 17 94
1988012S11061 1988 5 SI MM CALIDERA 1988-01-21 00:00:00 NR -30.0000 57.0000 36 reunion main 970 __________O___ -1 -30.0000 57.0000 1 20 16 94

About IBTrACS Database

This database is a web-friendly format of International Best Track Archive for Climate Stewardship (IBTrACS), a global best track data archive curated by NOAA dating back to 1842.

Updated: 2021-12-06